Time;durP1;ratioP1;P1;durP2;ratioP2;P2;SDS_P1;SDS_P2;PMS_P1;PMS_P2;Temp;Humidity;BMP_temperature;BMP_pressure;BME280_temperature;BME280_humidity;BME280_pressure;Samples;Min_cycle;Max_cycle;Signal;HPM_P1;HPM_P2
2023/03/23 00:01:05;;;;;;;2.65;1.40;;;;;;;;;;5107738;27;20023;-46
2023/03/23 00:03:31;;;;;;;1.58;1.20;;;;;;;;;;5126885;27;20100;-48
2023/03/23 00:06:05;;;;;;;3.25;1.60;;;;;;;;;;5107717;27;20019;-46
2023/03/23 00:08:33;;;;;;;2.22;1.25;;;;;;;;;;5108385;27;20084;-46
2023/03/23 00:11:00;;;;;;;2.20;1.23;;;;;;;;;;5126335;27;20389;-48
2023/03/23 00:13:27;;;;;;;1.95;1.20;;;;;;;;;;5126715;27;20031;-48
2023/03/23 00:15:56;;;;;;;2.95;1.58;;;;;;;;;;5108518;27;20054;-47
2023/03/23 00:18:24;;;;;;;2.92;1.20;;;;;;;;;;5108785;27;20405;-45
2023/03/23 00:20:51;;;;;;;1.58;1.05;;;;;;;;;;5126520;27;20111;-48
2023/03/23 00:23:18;;;;;;;1.48;1.00;;;;;;;;;;5126473;27;20027;-46
2023/03/23 00:25:52;;;;;;;2.20;1.40;;;;;;;;;;5126446;27;20034;-49
2023/03/23 00:28:24;;;;;;;2.17;1.10;;;;;;;;;;5126571;27;20019;-47
2023/03/23 00:30:56;;;;;;;3.05;1.20;;;;;;;;;;5125508;27;20502;-48
2023/03/23 00:33:23;;;;;;;1.25;0.85;;;;;;;;;;5124891;27;20110;-46
2023/03/23 00:35:52;;;;;;;1.65;1.08;;;;;;;;;;5126417;27;20045;-46
2023/03/23 00:38:19;;;;;;;3.25;1.20;;;;;;;;;;5126340;27;20440;-46
2023/03/23 00:40:46;;;;;;;1.27;1.00;;;;;;;;;;5125984;27;20109;-48
2023/03/23 00:43:13;;;;;;;2.35;1.40;;;;;;;;;;5126665;27;20019;-47
2023/03/23 00:45:40;;;;;;;1.20;1.00;;;;;;;;;;5126014;27;20011;-47
2023/03/23 00:48:06;;;;;;;2.08;1.17;;;;;;;;;;5125706;27;20102;-47
2023/03/23 00:50:33;;;;;;;1.52;1.05;;;;;;;;;;5125685;27;20534;-46
2023/03/23 00:52:59;;;;;;;3.42;1.00;;;;;;;;;;5125625;27;20031;-48
2023/03/23 00:55:26;;;;;;;1.40;1.10;;;;;;;;;;5126783;27;20562;-46
2023/03/23 00:57:53;;;;;;;1.55;0.90;;;;;;;;;;5124071;27;20031;-48
2023/03/23 01:00:19;;;;;;;2.38;1.17;;;;;;;;;;5125844;27;20031;-50
2023/03/23 01:02:46;;;;;;;1.98;1.05;;;;;;;;;;5127088;27;20031;-47
2023/03/23 06:12:40;;;;;;;;;;;;;;;;;;5131705;27;20015;-49
2023/03/23 06:15:06;;;;;;;;;;;;;;;;;;5147180;27;20867;-49
2023/03/23 06:17:32;;;;;;;;;;;;;;;;;;5143471;27;19907;-47
2023/03/23 06:19:58;;;;;;;;;;;;;;;;;;5128890;27;19912;-49
2023/03/23 06:22:24;;;;;;;;;;;;;;;;;;5150169;27;19915;-46
2023/03/23 06:24:50;;;;;;;;;;;;;;;;;;5141637;27;19911;-46
2023/03/23 06:27:17;;;;;;;;;;;;;;;;;;5133660;27;19907;-46
2023/03/23 06:29:43;;;;;;;;;;;;;;;;;;5134069;27;20002;-48
2023/03/23 06:32:09;;;;;;;;;;;;;;;;;;5133735;27;20347;-47
2023/03/23 06:34:36;;;;;;;;;;;;;;;;;;5133760;27;19965;-49
2023/03/23 06:37:02;;;;;;;;;;;;;;;;;;5133456;27;19983;-47
2023/03/23 06:39:28;;;;;;;;;;;;;;;;;;5133256;27;19976;-49
2023/03/23 06:41:54;;;;;;;;;;;;;;;;;;5133004;27;20387;-46
2023/03/23 06:44:20;;;;;;;;;;;;;;;;;;5133383;27;20424;-47
2023/03/23 06:46:48;;;;;;;;;;;;;;;;;;5129292;27;19912;-50
2023/03/23 06:49:14;;;;;;;;;;;;;;;;;;5127833;27;19916;-49
2023/03/23 06:51:40;;;;;;;;;;;;;;;;;;5112953;28;20390;-47
2023/03/23 06:54:07;;;;;;;;;;;;;;;;;;5117959;27;20436;-49
2023/03/23 06:56:33;;;;;;;;;;;;;;;;;;5132230;27;19915;-45
2023/03/23 06:58:59;;;;;;;;;;;;;;;;;;5133090;27;19911;-45
2023/03/23 07:01:25;;;;;;;;;;;;;;;;;;5130320;27;19923;-47
2023/03/23 07:03:51;;;;;;;;;;;;;;;;;;5132567;27;19912;-49
2023/03/23 07:06:17;;;;;;;;;;;;;;;;;;5132373;27;19990;-46
2023/03/23 07:08:43;;;;;;;;;;;;;;;;;;5128185;27;20044;-46
2023/03/23 07:11:10;;;;;;;;;;;;;;;;;;5127436;27;19915;-49
2023/03/23 07:13:36;;;;;;;;;;;;;;;;;;5129274;27;19998;-46
2023/03/23 07:16:02;;;;;;;;;;;;;;;;;;5107835;28;20068;-46
2023/03/23 07:18:28;;;;;;;;;;;;;;;;;;5111554;28;19912;-45
2023/03/23 07:20:54;;;;;;;;;;;;;;;;;;5109761;28;19962;-47
2023/03/23 07:23:20;;;;;;;;;;;;;;;;;;5111664;28;19939;-46
2023/03/23 07:25:48;;;;;;;;;;;;;;;;;;5108561;27;20002;-48
2023/03/23 07:28:14;;;;;;;;;;;;;;;;;;5110993;28;20394;-48
2023/03/23 07:30:40;;;;;;;;;;;;;;;;;;5107995;28;20011;-46
2023/03/23 07:33:06;;;;;;;;;;;;;;;;;;5109120;28;19920;-48
2023/03/23 07:35:32;;;;;;;;;;;;;;;;;;5108135;28;20350;-48
2023/03/23 07:37:58;;;;;;;;;;;;;;;;;;5109307;28;19980;-45
2023/03/23 07:40:24;;;;;;;;;;;;;;;;;;5107988;28;19922;-45
2023/03/23 07:42:50;;;;;;;;;;;;;;;;;;5109074;28;20355;-47
2023/03/23 07:45:16;;;;;;;;;;;;;;;;;;5109953;27;20315;-45
2023/03/23 07:47:43;;;;;;;;;;;;;;;;;;5109569;28;19915;-48
2023/03/23 07:50:09;;;;;;;;;;;;;;;;;;5087248;28;20431;-46
2023/03/23 07:52:35;;;;;;;;;;;;;;;;;;5107293;28;20061;-46
2023/03/23 07:55:04;;;;;;;;;;;;;;;;;;5107943;28;19907;-45
2023/03/23 07:57:32;;;;;;;;;;;;;;;;;;5107819;28;19952;-49
2023/03/23 07:59:59;;;;;;;;;;;;;;;;;;5108207;28;19908;-50
2023/03/23 08:02:26;;;;;;;;;;;;;;;;;;5109142;27;19924;-45
2023/03/23 08:04:53;;;;;;;;;;;;;;;;;;5108694;28;19908;-45
2023/03/23 08:07:19;;;;;;;;;;;;;;;;;;5107845;28;19916;-48
2023/03/23 08:09:45;;;;;;;;;;;;;;;;;;5109251;28;19908;-49
2023/03/23 08:12:11;;;;;;;;;;;;;;;;;;5109594;28;19922;-46
2023/03/23 08:14:38;;;;;;;;;;;;;;;;;;5118590;27;19916;-48
2023/03/23 08:17:04;;;;;;;;;;;;;;;;;;5130186;27;20006;-46
2023/03/23 08:19:30;;;;;;;;;;;;;;;;;;5130844;27;20018;-47
2023/03/23 08:21:56;;;;;;;;;;;;;;;;;;5130222;27;20013;-46
2023/03/23 08:24:23;;;;;;;;;;;;;;;;;;5131416;27;19986;-46
2023/03/23 08:26:49;;;;;;;;;;;;;;;;;;5130670;27;19943;-47
2023/03/23 08:29:16;;;;;;;;;;;;;;;;;;5129683;27;20023;-48
2023/03/23 08:31:42;;;;;;;;;;;;;;;;;;5129933;27;20060;-47
2023/03/23 08:34:07;;;;;;;;;;;;;;;;;;5129597;27;19911;-49
2023/03/23 08:36:33;;;;;;;;;;;;;;;;;;5129565;27;19919;-48
2023/03/23 08:38:59;;;;;;;;;;;;;;;;;;5129461;27;19918;-46
2023/03/23 08:41:25;;;;;;;;;;;;;;;;;;5129392;27;19942;-48
2023/03/23 08:43:52;;;;;;;;;;;;;;;;;;5129823;27;19908;-46
2023/03/23 08:46:19;;;;;;;;;;;;;;;;;;5129580;27;19914;-49
2023/03/23 08:48:45;;;;;;;;;;;;;;;;;;5129010;27;20003;-46
2023/03/23 08:51:11;;;;;;;;;;;;;;;;;;5128131;27;20337;-48
2023/03/23 08:53:36;;;;;;;;;;;;;;;;;;5128908;27;19911;-49
2023/03/23 08:56:03;;;;;;;;;;;;;;;;;;5142456;27;19971;-48
2023/03/23 08:58:29;;;;;;;;;;;;;;;;;;5130855;27;19915;-48
2023/03/23 09:00:55;;;;;;;;;;;;;;;;;;5130589;27;19920;-48
2023/03/23 09:03:21;;;;;;;;;;;;;;;;;;5130563;27;19914;-47
2023/03/23 09:05:47;;;;;;;;;;;;;;;;;;5130443;27;19909;-46
2023/03/23 09:08:13;;;;;;;;;;;;;;;;;;5130816;27;19908;-49
2023/03/23 09:10:39;;;;;;;;;;;;;;;;;;5130133;27;19908;-48
2023/03/23 09:13:05;;;;;;;;;;;;;;;;;;5130148;27;19960;-46
2023/03/23 09:15:32;;;;;;;;;;;;;;;;;;5129898;27;19980;-47
2023/03/23 09:17:58;;;;;;;;;;;;;;;;;;5130074;27;19929;-46
2023/03/23 09:20:24;;;;;;;;;;;;;;;;;;5111199;27;20129;-49
2023/03/23 09:22:50;;;;;;;;;;;;;;;;;;5109846;28;19935;-47
2023/03/23 09:25:18;;;;;;;;;;;;;;;;;;5127435;27;20434;-47
2023/03/23 09:27:46;;;;;;;;;;;;;;;;;;5130318;27;19926;-48
2023/03/23 09:30:12;;;;;;;;;;;;;;;;;;5130748;27;20401;-47
2023/03/23 09:32:38;;;;;;;;;;;;;;;;;;5130326;27;19942;-48
2023/03/23 09:35:04;;;;;;;;;;;;;;;;;;5130172;27;19911;-48
2023/03/23 09:37:30;;;;;;;;;;;;;;;;;;5130201;27;19911;-47
2023/03/23 09:39:56;;;;;;;;;;;;;;;;;;5111740;27;19912;-46
2023/03/23 09:42:22;;;;;;;;;;;;;;;;;;5109471;28;19911;-46
2023/03/23 09:44:49;;;;;;;;;;;;;;;;;;5109825;28;19915;-45
2023/03/23 09:47:15;;;;;;;;;;;;;;;;;;5109604;28;19923;-46
2023/03/23 09:49:41;;;;;;;;;;;;;;;;;;5108771;28;19920;-49
2023/03/23 09:52:06;;;;;;;;;;;;;;;;;;5107910;28;19947;-46
2023/03/23 09:54:33;;;;;;;;;;;;;;;;;;5116093;28;19952;-47
2023/03/23 09:57:00;;;;;;;;;;;;;;;;;;5126631;28;20448;-47
2023/03/23 09:59:26;;;;;;;;;;;;;;;;;;5114643;28;19912;-49
2023/03/23 10:01:53;;;;;;;;;;;;;;;;;;5112476;28;19976;-48
2023/03/23 10:04:19;;;;;;;;;;;;;;;;;;5128168;28;20386;-46
2023/03/23 10:06:44;;;;;;;;;;;;;;;;;;5127456;28;20034;-46
2023/03/23 10:09:10;;;;;;;;;;;;;;;;;;5106004;28;19923;-47
2023/03/23 10:11:37;;;;;;;;;;;;;;;;;;5121209;28;19908;-46
2023/03/23 10:14:03;;;;;;;;;;;;;;;;;;5107448;28;20501;-49
2023/03/23 10:16:29;;;;;;;;;;;;;;;;;;5105627;28;20464;-47
2023/03/23 10:18:55;;;;;;;;;;;;;;;;;;5106243;28;20303;-50
2023/03/23 10:21:21;;;;;;;;;;;;;;;;;;5105346;28;19972;-49
2023/03/23 10:23:48;;;;;;;;;;;;;;;;;;5105190;28;19912;-48
2023/03/23 10:26:13;;;;;;;;;;;;;;;;;;5104834;28;19919;-47
2023/03/23 10:28:39;;;;;;;;;;;;;;;;;;5105776;28;19916;-46
2023/03/23 10:31:05;;;;;;;;;;;;;;;;;;5105699;28;19939;-46
2023/03/23 10:33:31;;;;;;;;;;;;;;;;;;5105996;28;19907;-45
2023/03/23 10:36:00;;;;;;;;;;;;;;;;;;5107812;28;19911;-45
2023/03/23 10:38:26;;;;;;;;;;;;;;;;;;5115832;28;19974;-47
2023/03/23 10:40:52;;;;;;;;;;;;;;;;;;5105440;28;19963;-46
2023/03/23 10:43:18;;;;;;;;;;;;;;;;;;5105714;28;19908;-46
2023/03/23 10:45:44;;;;;;;;;;;;;;;;;;5105241;28;20306;-47
2023/03/23 10:48:10;;;;;;;;;;;;;;;;;;5106101;28;20468;-48
2023/03/23 10:50:37;;;;;;;;;;;;;;;;;;5106910;28;19972;-46
2023/03/23 10:53:03;;;;;;;;;;;;;;;;;;5109201;28;19908;-46
2023/03/23 10:55:29;;;;;;;;;;;;;;;;;;5110019;28;19910;-50
2023/03/23 10:57:56;;;;;;;;;;;;;;;;;;5109179;28;19924;-46
2023/03/23 11:00:22;;;;;;;;;;;;;;;;;;5089441;28;19923;-48
2023/03/23 11:02:48;;;;;;;;;;;;;;;;;;5107682;28;20003;-47
2023/03/23 11:05:14;;;;;;;;;;;;;;;;;;5110041;28;19938;-45
2023/03/23 11:07:41;;;;;;;;;;;;;;;;;;5108354;28;19916;-46
2023/03/23 11:10:08;;;;;;;;;;;;;;;;;;5109318;28;19908;-51
2023/03/23 11:12:34;;;;;;;;;;;;;;;;;;5107398;28;19919;-49
2023/03/23 11:15:00;;;;;;;;;;;;;;;;;;5109332;28;19919;-47
2023/03/23 11:17:27;;;;;;;;;;;;;;;;;;5108395;28;20269;-48
2023/03/23 11:19:54;;;;;;;;;;;;;;;;;;5107100;28;19916;-49
2023/03/23 11:22:21;;;;;;;;;;;;;;;;;;5106508;28;19922;-45
2023/03/23 11:24:48;;;;;;;;;;;;;;;;;;5108565;28;19907;-45
2023/03/23 11:27:14;;;;;;;;;;;;;;;;;;5108449;28;19915;-46
2023/03/23 11:29:40;;;;;;;;;;;;;;;;;;5107305;28;19920;-47
2023/03/23 11:32:07;;;;;;;;;;;;;;;;;;5106985;28;20394;-46
2023/03/23 11:34:36;;;;;;;;;;;;;;;;;;5108130;28;20309;-45
2023/03/23 11:37:02;;;;;;;;;;;;;;;;;;5108184;28;19907;-46
2023/03/23 11:39:28;;;;;;;;;;;;;;;;;;5107757;28;19918;-46
2023/03/23 11:41:54;;;;;;;;;;;;;;;;;;5108244;28;20113;-47
2023/03/23 11:44:20;;;;;;;;;;;;;;;;;;5108198;28;20272;-47
2023/03/23 11:46:46;;;;;;;;;;;;;;;;;;5108527;28;19907;-47
2023/03/23 11:49:13;;;;;;;;;;;;;;;;;;5108503;28;19908;-48
2023/03/23 11:51:40;;;;;;;;;;;;;;;;;;5108127;28;20022;-47
2023/03/23 11:54:06;;;;;;;;;;;;;;;;;;5107702;28;20002;-48
2023/03/23 11:56:32;;;;;;;;;;;;;;;;;;5108939;27;20011;-47
2023/03/23 11:58:58;;;;;;;;;;;;;;;;;;5119914;27;20379;-47
2023/03/23 12:01:25;;;;;;;;;;;;;;;;;;5106314;28;19915;-50
2023/03/23 12:03:50;;;;;;;;;;;;;;;;;;5098749;28;20562;-49
2023/03/23 12:06:17;;;;;;;;;;;;;;;;;;5108042;28;19959;-49
2023/03/23 12:08:44;;;;;;;;;;;;;;;;;;5107414;28;19916;-47
2023/03/23 12:11:10;;;;;;;;;;;;;;;;;;5099238;28;20287;-48
2023/03/23 12:13:37;;;;;;;;;;;;;;;;;;5107371;28;19915;-47
2023/03/23 12:16:02;;;;;;;;;;;;;;;;;;5106249;28;19916;-47
2023/03/23 12:18:30;;;;;;;;;;;;;;;;;;5107594;28;19911;-47
2023/03/23 12:20:56;;;;;;;;;;;;;;;;;;5107720;28;19920;-47
2023/03/23 12:23:22;;;;;;;;;;;;;;;;;;5108862;28;20012;-47
2023/03/23 12:25:48;;;;;;;;;;;;;;;;;;5108926;28;19927;-46
2023/03/23 12:28:15;;;;;;;;;;;;;;;;;;5109389;28;19912;-50
2023/03/23 12:30:41;;;;;;;;;;;;;;;;;;5109525;28;19916;-46
2023/03/23 12:33:08;;;;;;;;;;;;;;;;;;5108949;28;19915;-45
2023/03/23 12:35:34;;;;;;;;;;;;;;;;;;5106461;28;19911;-46
2023/03/23 12:38:00;;;;;;;;;;;;;;;;;;5108325;28;20328;-49
2023/03/23 12:40:27;;;;;;;;;;;;;;;;;;5108701;28;19998;-49
2023/03/23 12:42:53;;;;;;;;;;;;;;;;;;5108652;28;19912;-47
2023/03/23 12:45:21;;;;;;;;;;;;;;;;;;5108151;28;20431;-49
2023/03/23 12:47:48;;;;;;;;;;;;;;;;;;5108153;28;19912;-50
2023/03/23 12:50:14;;;;;;;;;;;;;;;;;;5108520;28;19919;-49
2023/03/23 12:52:41;;;;;;;;;;;;;;;;;;5108328;28;19990;-46
2023/03/23 12:55:07;;;;;;;;;;;;;;;;;;5107941;28;20294;-49
2023/03/23 12:57:33;;;;;;;;;;;;;;;;;;5104571;28;19911;-49
2023/03/23 12:59:59;;;;;;;;;;;;;;;;;;5107547;28;20295;-49
2023/03/23 13:02:25;;;;;;;;;;;;;;;;;;5108456;28;19916;-49
2023/03/23 13:04:51;;;;;;;;;;;;;;;;;;5108430;28;19911;-47
2023/03/23 13:07:17;;;;;;;;;;;;;;;;;;5108217;28;20308;-47
2023/03/23 13:09:44;;;;;;;;;;;;;;;;;;5109179;27;19920;-47
2023/03/23 13:12:10;;;;;;;;;;;;;;;;;;5107940;28;19965;-49
2023/03/23 13:14:36;;;;;;;;;;;;;;;;;;5106524;28;19920;-46
2023/03/23 13:17:02;;;;;;;;;;;;;;;;;;5102974;28;19915;-46
2023/03/23 13:19:28;;;;;;;;;;;;;;;;;;5107809;28;19912;-50
2023/03/23 13:21:56;;;;;;;;;;;;;;;;;;5105269;28;20541;-45
2023/03/23 13:24:22;;;;;;;;;;;;;;;;;;5107757;28;19915;-49
2023/03/23 13:26:49;;;;;;;;;;;;;;;;;;5104640;28;19912;-47
2023/03/23 13:29:18;;;;;;;;;;;;;;;;;;5108182;28;19916;-48
2023/03/23 13:31:44;;;;;;;;;;;;;;;;;;5106626;28;19908;-46
2023/03/23 13:34:10;;;;;;;;;;;;;;;;;;5104757;28;20237;-49
2023/03/23 13:36:37;;;;;;;;;;;;;;;;;;5102187;28;19916;-46
2023/03/23 13:39:03;;;;;;;;;;;;;;;;;;5105664;28;19912;-47
2023/03/23 13:41:30;;;;;;;;;;;;;;;;;;5103548;28;19924;-46
2023/03/23 13:43:56;;;;;;;;;;;;;;;;;;5105518;28;19916;-48
2023/03/23 13:46:22;;;;;;;;;;;;;;;;;;5103368;28;20250;-49
2023/03/23 13:48:48;;;;;;;;;;;;;;;;;;5104527;28;19912;-46
2023/03/23 13:51:14;;;;;;;;;;;;;;;;;;5104519;28;19908;-50
2023/03/23 13:53:40;;;;;;;;;;;;;;;;;;5103351;28;20056;-46
2023/03/23 13:56:07;;;;;;;;;;;;;;;;;;5103656;28;19922;-48
2023/03/23 13:58:33;;;;;;;;;;;;;;;;;;5105104;28;19994;-49
2023/03/23 14:00:59;;;;;;;;;;;;;;;;;;5106312;28;19919;-50
2023/03/23 14:03:25;;;;;;;;;;;;;;;;;;5106060;28;19919;-47
2023/03/23 14:05:51;;;;;;;;;;;;;;;;;;5104985;28;19916;-49
2023/03/23 14:08:17;;;;;;;;;;;;;;;;;;5105383;28;19923;-48
2023/03/23 14:10:44;;;;;;;;;;;;;;;;;;5107087;28;19916;-46
2023/03/23 14:13:10;;;;;;;;;;;;;;;;;;5100351;28;19916;-50
2023/03/23 14:15:35;;;;;;;;;;;;;;;;;;5092562;28;20550;-46
2023/03/23 14:18:02;;;;;;;;;;;;;;;;;;5105358;28;19920;-47
2023/03/23 14:20:27;;;;;;;;;;;;;;;;;;5106075;28;19951;-48
2023/03/23 14:22:54;;;;;;;;;;;;;;;;;;5105067;28;20008;-45
2023/03/23 14:25:23;;;;;;;;;;;;;;;;;;5107608;28;20787;-46
2023/03/23 14:27:49;;;;;;;;;;;;;;;;;;5109738;28;19922;-46
2023/03/23 14:30:15;;;;;;;;;;;;;;;;;;5111627;28;20002;-45
2023/03/23 14:32:41;;;;;;;;;;;;;;;;;;5109878;28;20690;-48
2023/03/23 14:35:07;;;;;;;;;;;;;;;;;;5109920;28;19919;-45
2023/03/23 14:37:35;;;;;;;;;;;;;;;;;;5109278;28;19919;-46
2023/03/23 14:40:03;;;;;;;;;;;;;;;;;;5109233;28;19908;-47
2023/03/23 14:42:30;;;;;;;;;;;;;;;;;;5106051;28;19922;-46
2023/03/23 14:44:55;;;;;;;;;;;;;;;;;;5105178;28;19912;-48
2023/03/23 14:47:21;;;;;;;;;;;;;;;;;;5104916;28;19938;-47
2023/03/23 14:49:47;;;;;;;;;;;;;;;;;;5106832;28;20011;-45
2023/03/23 14:52:13;;;;;;;;;;;;;;;;;;5107456;28;19949;-46
2023/03/23 14:54:41;;;;;;;;;;;;;;;;;;5110813;28;19931;-47
2023/03/23 14:57:07;;;;;;;;;;;;;;;;;;5107837;28;19920;-48
2023/03/23 14:59:33;;;;;;;;;;;;;;;;;;5110624;28;19908;-45
2023/03/23 15:02:01;;;;;;;;;;;;;;;;;;5108598;28;19996;-47
2023/03/23 15:04:27;;;;;;;;;;;;;;;;;;5110305;28;19916;-47
2023/03/23 15:06:53;;;;;;;;;;;;;;;;;;5107086;28;20356;-49
2023/03/23 15:09:19;;;;;;;;;;;;;;;;;;5109069;28;19969;-50
2023/03/23 15:11:45;;;;;;;;;;;;;;;;;;5105339;28;19923;-49
2023/03/23 15:14:11;;;;;;;;;;;;;;;;;;5108624;27;20006;-49
2023/03/23 15:16:41;;;;;;;;;;;;;;;;;;5105950;28;20003;-48
2023/03/23 15:19:07;;;;;;;;;;;;;;;;;;5107057;27;20042;-48
2023/03/23 15:21:34;;;;;;;;;;;;;;;;;;5108350;28;20347;-48
2023/03/23 15:24:00;;;;;;;;;;;;;;;;;;5116716;27;20026;-45
2023/03/23 15:26:26;;;;;;;;;;;;;;;;;;5105723;27;19941;-47
2023/03/23 15:28:52;;;;;;;;;;;;;;;;;;5111091;27;20513;-47
2023/03/23 15:31:18;;;;;;;;;;;;;;;;;;5098551;28;20011;-50
2023/03/23 15:33:44;;;;;;;;;;;;;;;;;;5115372;27;19911;-49
2023/03/23 15:36:10;;;;;;;;;;;;;;;;;;5117360;27;20015;-46
2023/03/23 15:38:35;;;;;;;;;;;;;;;;;;5111627;27;20849;-46
2023/03/23 15:41:01;;;;;;;;;;;;;;;;;;5118996;27;19965;-49
2023/03/23 15:43:27;;;;;;;;;;;;;;;;;;5107155;27;19919;-46
2023/03/23 15:45:55;;;;;;;;;;;;;;;;;;5100962;28;20014;-49
2023/03/23 15:48:21;;;;;;;;;;;;;;;;;;5108125;27;20475;-47
2023/03/23 15:50:47;;;;;;;;;;;;;;;;;;5099101;28;19924;-46
2023/03/23 15:53:13;;;;;;;;;;;;;;;;;;5106479;28;19915;-45
2023/03/23 15:55:39;;;;;;;;;;;;;;;;;;5111775;27;19956;-46
2023/03/23 15:58:05;;;;;;;;;;;;;;;;;;5106484;28;19916;-48
2023/03/23 16:00:31;;;;;;;;;;;;;;;;;;5102332;27;19916;-47
2023/03/23 16:02:57;;;;;;;;;;;;;;;;;;5105315;28;19923;-48
2023/03/23 16:05:23;;;;;;;;;;;;;;;;;;5117358;27;19915;-46
2023/03/23 16:07:49;;;;;;;;;;;;;;;;;;5083735;28;19934;-46
2023/03/23 16:10:15;;;;;;;;;;;;;;;;;;5104426;27;19922;-47
2023/03/23 16:12:41;;;;;;;;;;;;;;;;;;5105452;27;19912;-44
2023/03/23 16:15:08;;;;;;;;;;;;;;;;;;5104857;27;19923;-49
2023/03/23 16:17:34;;;;;;;;;;;;;;;;;;5108522;27;19915;-48
2023/03/23 16:20:00;;;;;;;;;;;;;;;;;;5110424;27;19912;-46
2023/03/23 16:22:26;;;;;;;;;;;;;;;;;;5108805;27;20390;-46
2023/03/23 16:24:52;;;;;;;;;;;;;;;;;;5107893;27;19919;-48
2023/03/23 16:27:20;;;;;;;;;;;;;;;;;;5099248;28;19985;-45
2023/03/23 16:29:46;;;;;;;;;;;;;;;;;;5099285;28;19912;-48
2023/03/23 16:32:12;;;;;;;;;;;;;;;;;;5103769;28;19912;-48
2023/03/23 16:34:38;;;;;;;;;;;;;;;;;;5102049;28;20666;-46
2023/03/23 16:37:05;;;;;;;;;;;;;;;;;;5103913;28;19958;-48
2023/03/23 16:39:31;;;;;;;;;;;;;;;;;;5105682;27;20002;-45
2023/03/23 16:41:57;;;;;;;;;;;;;;;;;;5104851;27;20050;-45
2023/03/23 16:44:23;;;;;;;;;;;;;;;;;;5117304;27;19939;-46
2023/03/23 16:46:49;;;;;;;;;;;;;;;;;;5104162;28;19912;-47
2023/03/23 16:49:15;;;;;;;;;;;;;;;;;;5109280;27;19923;-45
2023/03/23 16:51:41;;;;;;;;;;;;;;;;;;5105367;27;19934;-49
2023/03/23 16:54:07;;;;;;;;;;;;;;;;;;5107265;27;20480;-49
2023/03/23 16:56:33;;;;;;;;;;;;;;;;;;5107706;27;19950;-46
2023/03/23 16:58:59;;;;;;;;;;;;;;;;;;5107019;28;19945;-49
2023/03/23 17:01:24;;;;;;;;;;;;;;;;;;5104259;28;19943;-45
2023/03/23 17:03:50;;;;;;;;;;;;;;;;;;5103267;27;19908;-46
2023/03/23 17:06:16;;;;;;;;;;;;;;;;;;5104918;28;19922;-49
2023/03/23 17:08:42;;;;;;;;;;;;;;;;;;5104717;28;19950;-47
2023/03/23 17:11:08;;;;;;;;;;;;;;;;;;5104590;28;20455;-46
2023/03/23 17:13:34;;;;;;;;;;;;;;;;;;5104410;27;19916;-47
2023/03/23 17:16:01;;;;;;;;;;;;;;;;;;5127060;27;19923;-45
2023/03/23 17:18:27;;;;;;;;;;;;;;;;;;5136058;27;19911;-46
2023/03/23 17:20:53;;;;;;;;;;;;;;;;;;5128323;27;19915;-45
2023/03/23 17:23:20;;;;;;;;;;;;;;;;;;5125723;27;19915;-48
2023/03/23 17:25:46;;;;;;;;;;;;;;;;;;5126226;27;19977;-47
2023/03/23 17:28:12;;;;;;;;;;;;;;;;;;5124927;27;19951;-46
2023/03/23 17:30:38;;;;;;;;;;;;;;;;;;5124987;27;19916;-46
2023/03/23 17:33:04;;;;;;;;;;;;;;;;;;5125557;27;19918;-46
2023/03/23 17:35:30;;;;;;;;;;;;;;;;;;5124761;27;19941;-46
2023/03/23 17:37:56;;;;;;;;;;;;;;;;;;5125332;27;19907;-46
2023/03/23 17:40:22;;;;;;;;;;;;;;;;;;5126096;27;19918;-47
2023/03/23 17:42:47;;;;;;;;;;;;;;;;;;5124409;27;20018;-46
2023/03/23 17:45:13;;;;;;;;;;;;;;;;;;5126072;27;19919;-45
2023/03/23 17:47:39;;;;;;;;;;;;;;;;;;5124626;27;19907;-47
2023/03/23 17:50:05;;;;;;;;;;;;;;;;;;5125018;27;19965;-48
2023/03/23 17:52:31;;;;;;;;;;;;;;;;;;5125011;27;20014;-49
2023/03/23 17:54:57;;;;;;;;;;;;;;;;;;5125678;27;20354;-47
2023/03/23 17:57:23;;;;;;;;;;;;;;;;;;5124000;28;19964;-46
2023/03/23 17:59:49;;;;;;;;;;;;;;;;;;5111074;28;19915;-49
2023/03/23 18:02:17;;;;;;;;;;;;;;;;;;5125379;28;20006;-45
2023/03/23 18:04:43;;;;;;;;;;;;;;;;;;5125503;28;19953;-47
2023/03/23 18:07:09;;;;;;;;;;;;;;;;;;5120916;28;19915;-49
2023/03/23 18:09:36;;;;;;;;;;;;;;;;;;5106707;28;19915;-46
2023/03/23 18:12:02;;;;;;;;;;;;;;;;;;5117406;27;20383;-47
2023/03/23 18:14:28;;;;;;;;;;;;;;;;;;5112884;28;20417;-49
2023/03/23 18:16:54;;;;;;;;;;;;;;;;;;5125278;27;19916;-49
2023/03/23 18:19:20;;;;;;;;;;;;;;;;;;5127114;28;19918;-46
2023/03/23 18:21:46;;;;;;;;;;;;;;;;;;5125167;28;20394;-47
2023/03/23 18:24:12;;;;;;;;;;;;;;;;;;5126472;28;19964;-47
2023/03/23 18:26:38;;;;;;;;;;;;;;;;;;5122628;28;19916;-49
2023/03/23 18:29:03;;;;;;;;;;;;;;;;;;5125726;28;19911;-46
2023/03/23 18:31:29;;;;;;;;;;;;;;;;;;5123270;28;20442;-47
2023/03/23 18:33:55;;;;;;;;;;;;;;;;;;5125401;28;19916;-45
2023/03/23 18:36:21;;;;;;;;;;;;;;;;;;5124173;28;20549;-49
2023/03/23 18:38:48;;;;;;;;;;;;;;;;;;5125408;28;19998;-46
2023/03/23 18:41:14;;;;;;;;;;;;;;;;;;5124613;28;19968;-45
2023/03/23 18:43:41;;;;;;;;;;;;;;;;;;5124571;28;20294;-48
2023/03/23 18:46:07;;;;;;;;;;;;;;;;;;5124086;28;19961;-47
2023/03/23 18:48:34;;;;;;;;;;;;;;;;;;5122785;27;19951;-46
2023/03/23 18:51:01;;;;;;;;;;;;;;;;;;5123742;28;19908;-47
2023/03/23 18:53:27;;;;;;;;;;;;;;;;;;5123600;28;19929;-45
2023/03/23 18:55:53;;;;;;;;;;;;;;;;;;5124658;28;19911;-47
2023/03/23 18:58:19;;;;;;;;;;;;;;;;;;5122318;28;19911;-47
2023/03/23 19:00:46;;;;;;;;;;;;;;;;;;5124126;28;20398;-46
2023/03/23 19:03:12;;;;;;;;;;;;;;;;;;5124139;28;19954;-46
2023/03/23 19:05:38;;;;;;;;;;;;;;;;;;5124920;28;19916;-47
2023/03/23 19:08:04;;;;;;;;;;;;;;;;;;5123406;28;19911;-46
2023/03/23 19:10:30;;;;;;;;;;;;;;;;;;5125148;27;19960;-47
2023/03/23 19:12:56;;;;;;;;;;;;;;;;;;5129957;27;19915;-47
2023/03/23 19:15:23;;;;;;;;;;;;;;;;;;5130780;27;19949;-46
2023/03/23 19:17:54;;;;;;;;;;;;;;;;;;5130544;27;19967;-46
2023/03/23 19:20:20;;;;;;;;;;;;;;;;;;5130750;27;20350;-45
2023/03/23 19:22:46;;;;;;;;;;;;;;;;;;5130778;27;19963;-46
2023/03/23 19:25:12;;;;;;;;;;;;;;;;;;5130286;27;19911;-47
2023/03/23 19:27:38;;;;;;;;;;;;;;;;;;5129857;27;20016;-45
2023/03/23 19:30:04;;;;;;;;;;;;;;;;;;5129661;27;19950;-48
2023/03/23 19:32:30;;;;;;;;;;;;;;;;;;5130357;27;19959;-48
2023/03/23 19:34:56;;;;;;;;;;;;;;;;;;5130462;27;19911;-46
2023/03/23 19:37:22;;;;;;;;;;;;;;;;;;5129943;27;20011;-46
2023/03/23 19:39:48;;;;;;;;;;;;;;;;;;5130516;27;19919;-46
2023/03/23 19:42:16;;;;;;;;;;;;;;;;;;5128500;27;20423;-48
2023/03/23 19:44:42;;;;;;;;;;;;;;;;;;5125719;27;19912;-45
2023/03/23 19:47:08;;;;;;;;;;;;;;;;;;5126290;27;20013;-47
2023/03/23 19:49:35;;;;;;;;;;;;;;;;;;5129327;27;19920;-47
2023/03/23 19:52:01;;;;;;;;;;;;;;;;;;5127449;27;19911;-47
2023/03/23 19:54:27;;;;;;;;;;;;;;;;;;5108853;27;20241;-46
2023/03/23 19:56:54;;;;;;;;;;;;;;;;;;5126078;27;19961;-46
2023/03/23 19:59:20;;;;;;;;;;;;;;;;;;5126585;27;19912;-48
2023/03/23 20:01:45;;;;;;;;;;;;;;;;;;5127267;27;19920;-46
2023/03/23 20:04:11;;;;;;;;;;;;;;;;;;5126736;27;19919;-48
2023/03/23 20:06:37;;;;;;;;;;;;;;;;;;5105923;27;19961;-49
2023/03/23 20:09:03;;;;;;;;;;;;;;;;;;5126627;27;19946;-46
2023/03/23 20:11:29;;;;;;;;;;;;;;;;;;5123769;27;20040;-46
2023/03/23 20:13:55;;;;;;;;;;;;;;;;;;5126628;27;19915;-46
2023/03/23 20:16:22;;;;;;;;;;;;;;;;;;5126363;27;19970;-46
2023/03/23 20:18:48;;;;;;;;;;;;;;;;;;5108524;27;19915;-45
2023/03/23 20:21:14;;;;;;;;;;;;;;;;;;5127218;27;19923;-48
2023/03/23 20:23:40;;;;;;;;;;;;;;;;;;5107147;27;19916;-46
2023/03/23 20:26:06;;;;;;;;;;;;;;;;;;5126535;27;19982;-46
2023/03/23 20:28:31;;;;;;;;;;;;;;;;;;5126749;27;20365;-45
2023/03/23 20:30:57;;;;;;;;;;;;;;;;;;5126842;27;19915;-45
2023/03/23 20:33:25;;;;;;;;;;;;;;;;;;5125770;27;19942;-45
2023/03/23 20:35:51;;;;;;;;;;;;;;;;;;5126323;27;19912;-46
2023/03/23 20:38:17;;;;;;;;;;;;;;;;;;5126628;27;20417;-45
2023/03/23 20:40:44;;;;;;;;;;;;;;;;;;5127302;27;19920;-45
2023/03/23 20:43:10;;;;;;;;;;;;;;;;;;5125320;27;19919;-45
2023/03/23 20:45:35;;;;;;;;;;;;;;;;;;5126689;27;19915;-49
2023/03/23 20:48:01;;;;;;;;;;;;;;;;;;5106645;27;19916;-48
2023/03/23 20:50:29;;;;;;;;;;;;;;;;;;5126659;27;19960;-49
2023/03/23 20:52:56;;;;;;;;;;;;;;;;;;5125659;27;20011;-46
2023/03/23 20:55:22;;;;;;;;;;;;;;;;;;5126111;27;19912;-47
2023/03/23 20:57:49;;;;;;;;;;;;;;;;;;5126505;27;19915;-45
2023/03/23 21:00:16;;;;;;;;;;;;;;;;;;5126466;27;20047;-48
2023/03/23 21:02:43;;;;;;;;;;;;;;;;;;5124756;27;20283;-46
2023/03/23 21:05:09;;;;;;;;;;;;;;;;;;5125722;27;20011;-45
2023/03/23 21:07:35;;;;;;;;;;;;;;;;;;5104489;28;19916;-46
2023/03/23 21:10:01;;;;;;;;;;;;;;;;;;5105472;28;20398;-50
2023/03/23 21:12:27;;;;;;;;;;;;;;;;;;5105529;28;19915;-47
2023/03/23 21:14:53;;;;;;;;;;;;;;;;;;5122327;27;19915;-48
2023/03/23 21:17:19;;;;;;;;;;;;;;;;;;5107671;27;19907;-48
2023/03/23 21:19:46;;;;;;;;;;;;;;;;;;5127055;27;19911;-49
2023/03/23 21:22:13;;;;;;;;;;;;;;;;;;5125657;27;19918;-47
2023/03/23 21:24:39;;;;;;;;;;;;;;;;;;5126108;27;19960;-49
2023/03/23 21:27:05;;;;;;;;;;;;;;;;;;5125791;27;19916;-45
2023/03/23 21:29:31;;;;;;;;;;;;;;;;;;5125893;27;20351;-46
2023/03/23 21:31:57;;;;;;;;;;;;;;;;;;5125490;27;20483;-48
2023/03/23 21:34:23;;;;;;;;;;;;;;;;;;5125673;27;19903;-46
2023/03/23 21:36:49;;;;;;;;;;;;;;;;;;5125794;27;19908;-46